createdAt,value
2019-02-14T00:01:49.093Z,5.90
2019-02-14T00:04:17.507Z,4.30
2019-02-14T00:06:45.900Z,6.57
2019-02-14T00:09:14.304Z,4.57
2019-02-14T00:11:42.705Z,3.33
2019-02-14T00:14:11.118Z,8.10
2019-02-14T00:16:39.518Z,8.63
2019-02-14T00:19:07.598Z,5.73
2019-02-14T00:21:35.989Z,5.30
2019-02-14T00:24:04.396Z,4.50
2019-02-14T00:26:32.801Z,5.43
2019-02-14T00:29:01.208Z,7.80
2019-02-14T00:31:29.656Z,8.47
2019-02-14T00:33:58.067Z,5.63
2019-02-14T00:36:26.464Z,6.53
2019-02-14T00:38:54.876Z,5.00
2019-02-14T00:41:23.273Z,5.77
2019-02-14T00:43:51.684Z,9.00
2019-02-14T00:46:20.080Z,9.73
2019-02-14T00:48:48.488Z,3.93
2019-02-14T00:51:16.977Z,6.47
2019-02-14T00:53:45.071Z,4.67
2019-02-14T00:56:13.465Z,4.40
2019-02-14T00:58:41.872Z,3.77
2019-02-14T01:01:10.309Z,3.47
2019-02-14T01:03:38.721Z,7.97
2019-02-14T01:06:06.779Z,4.37
2019-02-14T01:08:35.189Z,5.50
2019-02-14T01:11:03.261Z,3.77
2019-02-14T01:13:31.937Z,4.83
2019-02-14T01:16:00.413Z,7.70
2019-02-14T01:18:28.520Z,8.30
2019-02-14T01:20:56.931Z,9.57
2019-02-14T01:23:25.400Z,8.70
2019-02-14T01:25:53.804Z,6.33
2019-02-14T01:28:22.372Z,6.83
2019-02-14T01:30:50.771Z,4.40
2019-02-14T01:33:19.180Z,4.10
2019-02-14T01:35:47.644Z,4.80
2019-02-14T01:38:16.040Z,2.73
2019-02-14T01:40:44.457Z,6.90
2019-02-14T01:43:12.854Z,7.67
2019-02-14T01:45:41.260Z,5.07
2019-02-14T01:48:09.329Z,3.97
2019-02-14T01:50:37.402Z,6.57
2019-02-14T01:53:05.478Z,3.93
2019-02-14T01:55:33.872Z,4.10
2019-02-14T01:58:02.274Z,3.27
2019-02-14T02:00:30.750Z,7.60
2019-02-14T02:02:59.149Z,3.17
2019-02-14T02:05:27.552Z,4.40
2019-02-14T02:07:55.957Z,2.37
2019-02-14T02:10:24.432Z,5.33
2019-02-14T02:12:52.833Z,1.97
2019-02-14T02:15:21.236Z,2.33
2019-02-14T02:17:49.633Z,2.90
2019-02-14T02:20:18.044Z,4.30
2019-02-14T02:22:46.452Z,3.40
2019-02-14T02:25:14.552Z,3.70
2019-02-14T02:27:42.940Z,2.40
2019-02-14T02:30:13.901Z,2.77
2019-02-14T02:32:42.307Z,1.60
2019-02-14T02:35:10.781Z,1.50
2019-02-14T02:37:39.181Z,1.23
2019-02-14T02:40:09.044Z,2.73
2019-02-14T02:42:37.434Z,1.33
2019-02-14T02:45:10.941Z,0.77
2019-02-14T02:47:39.418Z,0.70
2019-02-14T02:50:10.798Z,1.20
2019-02-14T02:52:39.204Z,0.80
2019-02-14T02:55:09.756Z,1.07
2019-02-14T02:57:38.165Z,1.30
2019-02-14T03:00:12.352Z,1.00
2019-02-14T03:03:00.099Z,0.87
2019-02-14T03:05:28.504Z,0.70
2019-02-14T03:07:56.915Z,1.00
2019-02-14T03:10:25.323Z,1.40
2019-02-14T03:12:53.724Z,1.43
2019-02-14T03:15:41.473Z,1.33
2019-02-14T03:18:09.897Z,4.13
2019-02-14T03:20:38.305Z,1.07
2019-02-14T03:23:06.389Z,1.90
2019-02-14T03:25:35.720Z,1.13
2019-02-14T03:28:04.287Z,2.40
2019-02-14T03:30:32.708Z,1.23
2019-02-14T03:33:01.167Z,1.20
2019-02-14T03:35:29.257Z,0.80
2019-02-14T03:37:57.668Z,1.00
2019-02-14T03:40:26.076Z,1.77
2019-02-14T03:42:54.480Z,0.97
2019-02-14T03:45:22.892Z,0.60
2019-02-14T03:47:51.299Z,1.53
2019-02-14T03:50:19.794Z,1.03
2019-02-14T03:52:48.218Z,0.90
2019-02-14T03:55:16.633Z,1.70
2019-02-14T03:57:44.699Z,2.30
2019-02-14T04:00:17.714Z,4.87
2019-02-14T04:02:46.113Z,2.77
2019-02-14T04:05:14.184Z,3.10
2019-02-14T04:08:09.782Z,3.07
2019-02-14T04:10:38.191Z,2.60
2019-02-14T04:13:06.599Z,1.47
2019-02-14T04:15:35.274Z,4.37
2019-02-14T04:18:03.669Z,2.37
2019-02-14T04:20:32.085Z,2.17
2019-02-14T04:23:00.496Z,4.50
2019-02-14T04:25:28.898Z,3.17
2019-02-14T04:27:57.302Z,4.17
2019-02-14T04:30:25.745Z,3.37
2019-02-14T04:32:54.141Z,7.00
2019-02-14T04:35:22.559Z,3.53
2019-02-14T04:37:50.955Z,2.83
2019-02-14T04:40:19.032Z,1.00
2019-02-14T04:42:47.437Z,1.00
2019-02-14T04:45:15.525Z,1.43
2019-02-14T04:47:43.908Z,1.90
2019-02-14T04:50:11.983Z,1.17
2019-02-14T04:52:40.401Z,2.97
2019-02-14T04:55:10.870Z,1.17
2019-02-14T04:57:39.289Z,1.57
2019-02-14T05:00:10.768Z,4.17
2019-02-14T05:02:39.165Z,1.20
2019-02-14T05:05:08.669Z,1.33
2019-02-14T05:07:37.073Z,1.27
2019-02-14T05:10:06.111Z,0.73
2019-02-14T05:12:34.517Z,1.10
2019-02-14T05:15:02.926Z,1.07
2019-02-14T05:17:31.336Z,0.70
2019-02-14T05:19:59.412Z,0.40
2019-02-14T05:22:27.819Z,0.93
2019-02-14T05:24:56.222Z,0.40
2019-02-14T05:27:24.635Z,1.30
2019-02-14T05:29:53.032Z,0.73
2019-02-14T05:32:21.115Z,0.90
2019-02-14T05:34:49.524Z,4.03
2019-02-14T05:37:17.937Z,0.67
2019-02-14T05:39:46.331Z,0.90
2019-02-14T05:42:14.763Z,2.10
2019-02-14T05:44:43.161Z,1.60
2019-02-14T05:47:11.301Z,0.97
2019-02-14T05:49:39.709Z,1.50
2019-02-14T05:52:08.120Z,0.30
2019-02-14T05:54:36.520Z,1.50
2019-02-14T05:57:04.943Z,0.33
2019-02-14T05:59:33.338Z,0.97
2019-02-14T06:02:01.747Z,1.77
2019-02-14T06:04:30.148Z,2.73
2019-02-14T06:07:01.179Z,1.00
2019-02-14T06:09:28.357Z,3.07
2019-02-14T06:11:56.768Z,6.93
2019-02-14T06:14:24.832Z,1.40
2019-02-14T06:16:53.249Z,0.90
2019-02-14T06:19:21.324Z,1.70
2019-02-14T06:21:49.724Z,2.70
2019-02-14T06:24:18.124Z,1.53
2019-02-14T06:26:46.533Z,2.83
2019-02-14T06:29:14.941Z,3.17
2019-02-14T06:31:43.352Z,4.70
2019-02-14T06:34:11.756Z,5.70
2019-02-14T06:36:40.171Z,9.03
2019-02-14T06:39:27.906Z,6.67
2019-02-14T06:41:56.325Z,2.40
2019-02-14T06:44:24.385Z,3.67
2019-02-14T06:46:52.533Z,2.37
2019-02-14T06:49:20.600Z,3.93
2019-02-14T06:51:48.699Z,3.00
2019-02-14T06:54:17.132Z,3.23
2019-02-14T06:56:45.206Z,2.37
2019-02-14T06:59:13.929Z,1.47
2019-02-14T07:01:42.000Z,5.27
2019-02-14T07:04:10.408Z,1.37
2019-02-14T07:06:38.479Z,1.53
2019-02-14T07:09:06.882Z,2.30
2019-02-14T07:11:34.955Z,2.30
2019-02-14T07:14:03.358Z,3.37
2019-02-14T07:16:31.769Z,2.60
2019-02-14T07:19:00.169Z,5.63
2019-02-14T07:21:28.576Z,2.77
2019-02-14T07:23:56.981Z,3.30
2019-02-14T07:26:25.409Z,1.53
2019-02-14T07:28:53.476Z,7.30
2019-02-14T07:31:21.877Z,3.40
2019-02-14T07:33:50.289Z,6.20
2019-02-14T07:36:18.689Z,3.30
2019-02-14T07:38:47.092Z,4.93
2019-02-14T07:41:15.485Z,2.70
2019-02-14T07:43:43.892Z,3.17
2019-02-14T07:46:12.297Z,1.83
2019-02-14T07:48:40.704Z,2.80
2019-02-14T07:51:09.100Z,1.23
2019-02-14T07:53:37.509Z,2.50
2019-02-14T07:56:05.905Z,1.83
2019-02-14T07:58:34.312Z,2.77
2019-02-14T08:01:02.800Z,5.30
2019-02-14T08:03:31.208Z,3.63
2019-02-14T08:05:59.274Z,1.60
2019-02-14T08:08:27.679Z,2.50
2019-02-14T08:10:55.752Z,2.00
2019-02-14T08:13:25.680Z,1.77
2019-02-14T08:15:54.436Z,3.10
2019-02-14T08:18:22.835Z,1.73
2019-02-14T08:20:51.228Z,1.53
2019-02-14T08:23:19.640Z,2.07
2019-02-14T08:25:48.205Z,12.90
2019-02-14T08:28:16.630Z,6.13
2019-02-14T08:30:45.025Z,3.80
2019-02-14T08:33:13.102Z,2.40
2019-02-14T08:35:41.193Z,1.27
2019-02-14T08:38:09.276Z,3.30
2019-02-14T08:40:37.681Z,0.87
2019-02-14T08:43:05.757Z,0.77
2019-02-14T08:45:34.170Z,1.17
2019-02-14T08:48:02.572Z,1.60
2019-02-14T08:50:30.640Z,1.33
2019-02-14T08:52:59.045Z,0.90
2019-02-14T08:55:27.112Z,1.13
2019-02-14T08:57:55.514Z,1.93
2019-02-14T09:00:23.913Z,1.00
2019-02-14T09:02:52.323Z,0.80
2019-02-14T09:05:20.717Z,2.40
2019-02-14T09:07:54.772Z,5.00
2019-02-14T09:10:19.004Z,1.30
2019-02-14T09:12:47.404Z,1.13
2019-02-14T09:15:15.539Z,1.07
2019-02-14T09:17:43.933Z,2.47
2019-02-14T09:20:18.244Z,0.70
2019-02-14T09:22:46.665Z,2.72
2019-02-14T09:25:15.096Z,0.60
2019-02-14T09:27:43.481Z,0.65
2019-02-14T09:30:14.971Z,0.90
2019-02-14T09:32:43.653Z,0.70
2019-02-14T09:35:12.145Z,1.07
2019-02-14T09:37:40.537Z,0.95
2019-02-14T09:40:13.978Z,2.47
2019-02-14T09:42:42.452Z,0.57
2019-02-14T09:45:12.760Z,1.92
2019-02-14T09:47:41.223Z,1.02
2019-02-14T09:50:14.059Z,1.77
2019-02-14T09:52:42.608Z,4.30
2019-02-14T09:55:12.648Z,2.05
2019-02-14T09:57:41.055Z,1.05
2019-02-14T10:00:12.404Z,0.95
2019-02-14T10:02:40.857Z,0.95
2019-02-14T10:05:10.289Z,1.67
2019-02-14T10:07:38.870Z,1.57
2019-02-14T10:10:08.492Z,1.60
2019-02-14T10:12:36.880Z,4.45
2019-02-14T10:15:06.925Z,4.78
2019-02-14T10:17:35.318Z,1.85
2019-02-14T10:20:05.732Z,1.50
2019-02-14T10:22:34.129Z,2.33
2019-02-14T10:25:02.537Z,1.62
2019-02-14T10:27:30.926Z,3.72
2019-02-14T10:29:59.338Z,2.98
2019-02-14T10:32:27.741Z,3.05
2019-02-14T10:34:56.153Z,1.12
2019-02-14T10:37:24.551Z,2.75
2019-02-14T10:39:52.964Z,2.02
2019-02-14T10:42:21.366Z,2.25
2019-02-14T10:44:49.470Z,2.87
2019-02-14T10:47:17.848Z,5.62
2019-02-14T10:49:46.260Z,4.10
2019-02-14T10:52:14.658Z,4.37
2019-02-14T10:54:43.061Z,2.85
2019-02-14T10:57:11.460Z,2.37
2019-02-14T10:59:39.539Z,1.57
2019-02-14T11:02:08.212Z,5.47
2019-02-14T11:04:36.633Z,1.45
2019-02-14T11:07:05.038Z,1.62
2019-02-14T11:09:33.201Z,1.80
2019-02-14T11:12:01.600Z,1.67
2019-02-14T11:14:30.452Z,1.80
2019-02-14T11:16:58.856Z,0.90
2019-02-14T11:19:27.269Z,3.87
2019-02-14T11:21:55.674Z,3.67
2019-02-14T11:24:24.084Z,1.87
2019-02-14T11:26:52.485Z,1.52
2019-02-14T11:29:20.897Z,1.92
2019-02-14T11:31:48.969Z,1.70
2019-02-14T11:34:17.369Z,1.55
2019-02-14T11:36:45.870Z,1.47
2019-02-14T11:39:14.280Z,0.88
2019-02-14T11:41:42.352Z,2.45
2019-02-14T11:44:10.438Z,2.22
2019-02-14T11:46:38.517Z,1.22
2019-02-14T11:49:07.107Z,4.33
2019-02-14T11:51:35.279Z,2.75
2019-02-14T11:54:03.723Z,2.42
2019-02-14T11:56:32.129Z,1.32
2019-02-14T11:59:00.565Z,3.30
2019-02-14T12:01:28.974Z,6.12
2019-02-14T12:03:57.369Z,1.65
2019-02-14T12:06:25.775Z,4.15
2019-02-14T12:08:59.988Z,2.62
2019-02-14T12:11:23.991Z,6.53
2019-02-14T12:13:52.397Z,4.92
2019-02-14T12:16:20.964Z,4.35
2019-02-14T12:18:49.059Z,4.47
2019-02-14T12:21:17.520Z,2.65
2019-02-14T12:23:45.919Z,2.05
2019-02-14T12:26:14.331Z,2.83
2019-02-14T12:28:42.724Z,3.67
2019-02-14T12:31:11.158Z,5.17
2019-02-14T12:33:39.562Z,2.98
2019-02-14T12:36:07.973Z,6.10
2019-02-14T12:38:36.369Z,5.83
2019-02-14T12:41:04.772Z,4.90
2019-02-14T12:43:33.168Z,3.77
2019-02-14T12:46:01.746Z,6.62
2019-02-14T12:48:29.819Z,0.60
2019-02-14T12:50:57.897Z,7.03
2019-02-14T12:53:26.302Z,2.65
2019-02-14T12:55:54.420Z,4.37
2019-02-14T12:58:22.826Z,4.55
2019-02-14T13:00:51.233Z,1.07
2019-02-14T13:03:19.773Z,2.67
2019-02-14T13:05:48.180Z,2.37
2019-02-14T13:08:16.574Z,3.67
2019-02-14T13:10:44.657Z,3.70
2019-02-14T13:13:13.057Z,6.25
2019-02-14T13:15:41.467Z,5.45
2019-02-14T13:18:09.743Z,3.42
2019-02-14T13:20:38.144Z,10.08
2019-02-14T13:23:06.536Z,2.98
2019-02-14T13:25:34.972Z,4.55
2019-02-14T13:28:03.039Z,4.42
2019-02-14T13:30:31.180Z,5.20
2019-02-14T13:32:59.232Z,5.72
2019-02-14T13:35:27.638Z,8.43
2019-02-14T13:37:55.719Z,8.58
2019-02-14T13:40:24.128Z,3.75
2019-02-14T13:42:52.193Z,5.30
2019-02-14T13:45:21.815Z,1.57
2019-02-14T13:47:50.229Z,7.17
2019-02-14T13:50:18.836Z,2.25
2019-02-14T13:52:47.225Z,2.85
2019-02-14T13:55:15.766Z,1.50
2019-02-14T13:57:44.217Z,3.30
2019-02-14T14:00:22.386Z,3.05
2019-02-14T14:02:50.784Z,3.27
2019-02-14T14:05:19.296Z,4.45
2019-02-14T14:07:47.713Z,2.15
2019-02-14T14:10:16.181Z,17.55
2019-02-14T14:12:44.588Z,5.47
2019-02-14T14:15:13.262Z,8.78
2019-02-14T14:17:41.671Z,6.42
2019-02-14T14:20:09.731Z,5.62
2019-02-14T14:22:38.213Z,11.78
2019-02-14T14:25:09.111Z,8.10
2019-02-14T14:27:37.517Z,4.85
2019-02-14T14:30:13.257Z,8.53
2019-02-14T14:32:44.263Z,5.28
2019-02-14T14:35:12.828Z,6.35
2019-02-14T14:37:41.509Z,9.93
2019-02-14T14:40:15.455Z,8.75
2019-02-14T14:42:51.322Z,8.30
2019-02-14T14:45:38.292Z,6.90
2019-02-14T14:48:07.288Z,7.40
2019-02-14T14:50:35.685Z,7.78
2019-02-14T14:53:04.092Z,12.63
2019-02-14T14:55:32.489Z,9.18
2019-02-14T14:58:00.569Z,7.45
2019-02-14T15:00:29.024Z,8.03
2019-02-14T15:02:57.433Z,5.33
2019-02-14T15:05:26.192Z,6.12
2019-02-14T15:07:54.440Z,10.63
2019-02-14T15:10:22.843Z,8.20
2019-02-14T15:12:51.249Z,6.60
2019-02-14T15:15:19.689Z,7.67
2019-02-14T15:17:48.205Z,9.18
2019-02-14T15:20:16.347Z,4.47
2019-02-14T15:22:44.753Z,4.60
2019-02-14T15:25:13.132Z,8.85
2019-02-14T15:27:41.547Z,10.60
2019-02-14T15:30:10.008Z,6.00
2019-02-14T15:32:38.420Z,9.50
2019-02-14T15:35:08.554Z,9.73
2019-02-14T15:37:37.025Z,9.00
2019-02-14T15:40:10.050Z,5.22
2019-02-14T15:42:38.590Z,5.42
2019-02-14T15:45:07.224Z,5.85
2019-02-14T15:47:35.636Z,7.80
2019-02-14T15:50:23.047Z,8.50
2019-02-14T15:52:52.314Z,7.15
2019-02-14T15:55:21.906Z,12.03
2019-02-14T15:57:51.381Z,9.38
2019-02-14T16:00:19.448Z,9.98
2019-02-14T16:02:49.783Z,5.12
2019-02-14T16:05:19.041Z,5.85
2019-02-14T16:07:47.183Z,4.97
2019-02-14T16:10:18.489Z,7.00
2019-02-14T16:12:45.929Z,10.28
2019-02-14T16:15:14.577Z,4.92
2019-02-14T16:17:42.986Z,5.55
2019-02-14T16:20:11.552Z,7.85
2019-02-14T16:22:41.824Z,7.17
2019-02-14T16:25:10.144Z,8.13
2019-02-14T16:27:38.532Z,6.55
2019-02-14T16:30:09.441Z,9.25
2019-02-14T16:32:38.025Z,7.65
2019-02-14T16:35:07.670Z,9.30
2019-02-14T16:37:36.072Z,10.82
2019-02-14T16:40:06.812Z,6.58
2019-02-14T16:42:35.208Z,6.15
2019-02-14T16:45:04.376Z,7.97
2019-02-14T16:47:32.772Z,6.17
2019-02-14T16:50:01.275Z,8.85
2019-02-14T16:52:29.668Z,17.00
2019-02-14T16:54:58.077Z,9.53
2019-02-14T16:57:26.140Z,8.40
2019-02-14T16:59:54.557Z,6.42
2019-02-14T17:02:22.960Z,11.63
2019-02-14T17:04:52.187Z,8.30
2019-02-14T17:07:20.262Z,11.30
2019-02-14T17:09:48.674Z,7.20
2019-02-14T17:12:16.745Z,13.60
2019-02-14T17:14:45.148Z,8.95
2019-02-14T17:17:13.548Z,8.77
2019-02-14T17:19:41.625Z,7.07
2019-02-14T17:22:10.031Z,9.25
2019-02-14T17:24:38.529Z,5.67
2019-02-14T17:27:06.920Z,9.28
2019-02-14T17:29:35.016Z,8.70
2019-02-14T17:32:03.473Z,10.82
2019-02-14T17:34:31.888Z,10.03
2019-02-14T17:37:00.304Z,8.85
2019-02-14T17:39:28.713Z,10.13
2019-02-14T17:41:57.113Z,7.67
2019-02-14T17:44:25.520Z,7.13
2019-02-14T17:46:53.916Z,8.73
2019-02-14T17:49:22.400Z,6.42
2019-02-14T17:51:50.802Z,5.97
2019-02-14T17:54:19.220Z,8.67
2019-02-14T17:56:47.614Z,10.43
2019-02-14T17:59:15.756Z,10.33
2019-02-14T18:01:43.834Z,7.97
2019-02-14T18:04:11.900Z,7.40
2019-02-14T18:06:40.305Z,9.03
2019-02-14T18:09:08.373Z,5.47
2019-02-14T18:11:36.519Z,9.50
2019-02-14T18:14:04.603Z,6.57
2019-02-14T18:16:33.004Z,9.67
2019-02-14T18:19:01.071Z,6.70
2019-02-14T18:21:29.476Z,16.97
2019-02-14T18:23:57.886Z,8.77
2019-02-14T18:26:26.297Z,12.47
2019-02-14T18:28:54.743Z,14.67
2019-02-14T18:31:23.160Z,11.83
2019-02-14T18:33:51.552Z,11.13
2019-02-14T18:36:19.999Z,14.57
2019-02-14T18:38:48.392Z,18.70
2019-02-14T18:41:16.801Z,16.20
2019-02-14T18:43:45.204Z,11.80
2019-02-14T18:46:13.613Z,11.63
2019-02-14T18:48:42.014Z,14.47
2019-02-14T18:51:10.419Z,13.90
2019-02-14T18:53:38.838Z,12.57
2019-02-14T18:56:07.301Z,15.83
2019-02-14T18:58:35.704Z,10.10
2019-02-14T19:01:23.121Z,10.53
2019-02-14T19:03:51.512Z,9.83
2019-02-14T19:06:19.923Z,11.77
2019-02-14T19:08:48.019Z,10.73
2019-02-14T19:11:16.410Z,10.20
2019-02-14T19:13:44.565Z,9.33
2019-02-14T19:16:12.972Z,16.07
2019-02-14T19:18:41.411Z,10.33
2019-02-14T19:21:10.240Z,11.03
2019-02-14T19:23:40.270Z,6.57
2019-02-14T19:26:08.784Z,8.50
2019-02-14T19:28:38.287Z,10.83
2019-02-14T19:31:06.830Z,7.90
2019-02-14T19:33:35.249Z,4.70
2019-02-14T19:36:03.640Z,9.57
2019-02-14T19:38:32.052Z,4.47
2019-02-14T19:41:00.476Z,10.67
2019-02-14T19:43:28.937Z,5.80
2019-02-14T19:45:57.128Z,3.07
2019-02-14T19:48:25.542Z,4.57
2019-02-14T19:50:53.953Z,3.27
2019-02-14T19:53:22.161Z,1.73
2019-02-14T19:55:50.588Z,3.67
2019-02-14T19:58:18.988Z,1.87
2019-02-14T20:00:47.410Z,4.20
2019-02-14T20:03:15.462Z,2.70
2019-02-14T20:05:43.886Z,4.60
2019-02-14T20:08:12.344Z,4.27
2019-02-14T20:10:40.738Z,3.07
2019-02-14T20:13:09.141Z,1.90
2019-02-14T20:15:37.701Z,3.30
2019-02-14T20:18:06.386Z,2.53
2019-02-14T20:20:34.854Z,6.50
2019-02-14T20:23:03.404Z,5.90
2019-02-14T20:25:31.854Z,4.20
2019-02-14T20:28:00.287Z,1.67
2019-02-14T20:30:28.684Z,4.20
2019-02-14T20:33:04.419Z,3.00
2019-02-14T20:35:27.396Z,2.00
2019-02-14T20:37:55.803Z,3.03
2019-02-14T20:40:23.875Z,4.73
2019-02-14T20:42:52.310Z,3.50
2019-02-14T20:45:20.699Z,3.97
2019-02-14T20:47:49.123Z,2.57
2019-02-14T20:50:17.615Z,3.67
2019-02-14T20:52:46.090Z,3.97
2019-02-14T20:55:20.202Z,4.00
2019-02-14T20:57:48.835Z,2.73
2019-02-14T21:00:21.732Z,2.23
2019-02-14T21:02:50.169Z,3.50
2019-02-14T21:05:18.245Z,3.70
2019-02-14T21:07:46.685Z,4.70
2019-02-14T21:10:15.188Z,3.53
2019-02-14T21:12:43.669Z,2.63
2019-02-14T21:15:12.254Z,5.73
2019-02-14T21:17:40.636Z,3.80
2019-02-14T21:20:11.715Z,2.33
2019-02-14T21:22:39.856Z,4.93
2019-02-14T21:25:08.304Z,2.63
2019-02-14T21:27:36.702Z,4.57
2019-02-14T21:30:13.973Z,3.87
2019-02-14T21:32:42.093Z,3.90
2019-02-14T21:35:10.567Z,3.10
2019-02-14T21:37:38.720Z,7.33
2019-02-14T21:40:12.392Z,2.33
2019-02-14T21:42:40.776Z,2.80
2019-02-14T21:45:28.529Z,1.90
2019-02-14T21:47:57.056Z,1.20
2019-02-14T21:50:25.280Z,4.03
2019-02-14T21:52:53.671Z,2.03
2019-02-14T21:55:22.445Z,2.23
2019-02-14T21:57:50.860Z,2.07
2019-02-14T22:00:29.410Z,4.23
2019-02-14T22:02:57.802Z,4.00
2019-02-14T22:05:26.774Z,2.57
2019-02-14T22:07:55.487Z,4.77
2019-02-14T22:10:23.893Z,2.90
2019-02-14T22:12:52.285Z,1.67
2019-02-14T22:15:28.174Z,2.67
2019-02-14T22:17:56.665Z,2.23
2019-02-14T22:20:25.100Z,1.37
2019-02-14T22:22:53.498Z,1.70
2019-02-14T22:25:21.575Z,3.27
2019-02-14T22:27:49.973Z,1.50
2019-02-14T22:30:18.549Z,1.57
2019-02-14T22:32:46.944Z,2.57
2019-02-14T22:35:15.357Z,1.30
2019-02-14T22:37:43.758Z,1.80
2019-02-14T22:40:13.576Z,1.93
2019-02-14T22:42:47.248Z,1.30
2019-02-14T22:45:13.879Z,1.20
2019-02-14T22:47:43.482Z,1.97
2019-02-14T22:50:11.932Z,2.13
2019-02-14T22:52:40.333Z,2.17
2019-02-14T22:55:11.147Z,2.37
2019-02-14T22:57:39.555Z,1.17
2019-02-14T23:00:29.248Z,1.33
2019-02-14T23:02:57.776Z,1.27
2019-02-14T23:05:25.858Z,3.17
2019-02-14T23:07:54.262Z,1.67
2019-02-14T23:10:22.335Z,3.23
2019-02-14T23:12:55.755Z,1.30
2019-02-14T23:15:20.852Z,2.10
2019-02-14T23:17:48.925Z,2.13
2019-02-14T23:20:17.380Z,1.93
2019-02-14T23:22:45.780Z,3.63
2019-02-14T23:25:14.184Z,3.93
2019-02-14T23:27:42.583Z,1.53
2019-02-14T23:30:11.454Z,2.13
2019-02-14T23:32:39.517Z,3.33
2019-02-14T23:35:08.000Z,1.40
2019-02-14T23:37:36.393Z,1.03
2019-02-14T23:40:04.735Z,2.40
2019-02-14T23:42:33.136Z,5.17
2019-02-14T23:45:01.549Z,2.47
2019-02-14T23:47:29.940Z,3.07
2019-02-14T23:49:58.354Z,1.10
2019-02-14T23:52:26.753Z,2.83
2019-02-14T23:54:55.161Z,0.97
2019-02-14T23:57:23.557Z,2.27
2019-02-14T23:59:51.965Z,1.23
